createdAt,value
2018-03-21T00:02:02.664Z,92.40
2018-03-21T00:04:30.263Z,91.50
2018-03-21T00:06:57.844Z,91.60
2018-03-21T00:09:25.445Z,91.30
2018-03-21T00:11:53.788Z,91.50
2018-03-21T00:14:21.369Z,91.50
2018-03-21T00:16:48.981Z,90.90
2018-03-21T00:19:17.332Z,90.60
2018-03-21T00:21:44.944Z,90.60
2018-03-21T00:24:13.296Z,91.30
2018-03-21T00:26:40.910Z,91.30
2018-03-21T00:29:09.265Z,90.90
2018-03-21T00:31:36.877Z,90.90
2018-03-21T00:34:05.228Z,90.90
2018-03-21T00:36:32.812Z,90.80
2018-03-21T00:39:00.434Z,90.90
2018-03-21T00:41:28.025Z,90.90
2018-03-21T00:43:55.620Z,91.00
2018-03-21T00:46:23.280Z,91.20
2018-03-21T00:48:50.886Z,91.30
2018-03-21T00:51:18.470Z,91.90
2018-03-21T00:53:46.844Z,92.80
2018-03-21T00:56:14.445Z,92.80
2018-03-21T00:58:43.057Z,93.40
2018-03-21T01:01:10.704Z,93.30
2018-03-21T01:03:39.050Z,93.40
2018-03-21T01:06:06.657Z,93.30
2018-03-21T01:08:34.237Z,93.90
2018-03-21T01:11:01.875Z,94.50
2018-03-21T01:13:29.455Z,94.90
2018-03-21T01:15:57.044Z,95.20
2018-03-21T01:18:24.622Z,94.80
2018-03-21T01:20:52.234Z,94.80
2018-03-21T01:23:19.823Z,94.90
2018-03-21T01:25:47.403Z,94.80
2018-03-21T01:28:15.000Z,94.10
2018-03-21T01:30:42.592Z,94.10
2018-03-21T01:33:10.210Z,94.70
2018-03-21T01:35:37.774Z,94.70
2018-03-21T01:38:05.376Z,94.30
2018-03-21T01:40:32.953Z,94.30
2018-03-21T01:43:00.545Z,93.30
2018-03-21T01:45:28.120Z,93.10
2018-03-21T01:47:55.687Z,92.40
2018-03-21T01:50:23.294Z,92.10
2018-03-21T01:53:03.737Z,92.10
2018-03-21T01:55:31.335Z,92.10
2018-03-21T01:57:59.690Z,92.40
2018-03-21T02:00:27.297Z,92.30
2018-03-21T02:02:55.643Z,92.80
2018-03-21T02:05:23.227Z,92.70
2018-03-21T02:07:50.808Z,93.10
2018-03-21T02:10:18.410Z,92.40
2018-03-21T02:12:46.752Z,92.60
2018-03-21T02:15:14.352Z,92.60
2018-03-21T02:17:41.937Z,92.40
2018-03-21T02:20:10.397Z,92.00
2018-03-21T02:22:37.971Z,92.00
2018-03-21T02:25:05.574Z,91.90
2018-03-21T02:27:33.172Z,92.10
2018-03-21T02:30:01.535Z,92.80
2018-03-21T02:32:29.118Z,92.80
2018-03-21T02:34:57.493Z,92.70
2018-03-21T02:37:25.098Z,92.70
2018-03-21T02:39:53.454Z,92.50
2018-03-21T02:42:21.069Z,92.40
2018-03-21T02:44:49.421Z,92.50
2018-03-21T02:47:17.010Z,92.50
2018-03-21T02:49:45.408Z,93.00
2018-03-21T02:52:13.749Z,91.70
2018-03-21T02:54:41.346Z,92.40
2018-03-21T02:57:08.952Z,91.60
2018-03-21T02:59:37.299Z,91.60
2018-03-21T03:02:04.893Z,91.40
2018-03-21T03:04:32.487Z,91.60
2018-03-21T03:07:00.870Z,91.30
2018-03-21T03:09:29.329Z,90.60
2018-03-21T03:11:56.871Z,90.60
2018-03-21T03:14:24.453Z,90.50
2018-03-21T03:16:52.060Z,90.90
2018-03-21T03:19:19.631Z,90.70
2018-03-21T03:21:47.223Z,90.30
2018-03-21T03:24:14.801Z,90.40
2018-03-21T03:26:42.367Z,90.60
2018-03-21T03:29:09.967Z,90.50
2018-03-21T03:31:37.546Z,90.10
2018-03-21T03:34:05.210Z,90.30
2018-03-21T03:36:33.550Z,90.00
2018-03-21T03:39:01.141Z,90.00
2018-03-21T03:41:28.734Z,89.90
2018-03-21T03:43:57.075Z,90.20
2018-03-21T03:46:24.687Z,90.20
2018-03-21T03:48:52.272Z,89.60
2018-03-21T03:51:20.626Z,89.50
2018-03-21T03:53:48.219Z,89.40
2018-03-21T03:56:15.806Z,89.60
2018-03-21T03:58:44.179Z,89.00
2018-03-21T04:01:11.767Z,89.00
2018-03-21T04:03:39.409Z,88.60
2018-03-21T04:06:07.006Z,88.70
2018-03-21T04:08:34.588Z,88.10
2018-03-21T04:11:02.214Z,87.50
2018-03-21T04:13:29.803Z,87.10
2018-03-21T04:15:57.393Z,86.50
2018-03-21T04:18:24.992Z,86.10
2018-03-21T04:20:53.349Z,87.50
2018-03-21T04:23:20.979Z,87.50
2018-03-21T04:25:48.569Z,87.80
2018-03-21T04:28:16.156Z,87.00
2018-03-21T04:30:43.754Z,86.70
2018-03-21T04:33:11.362Z,86.40
2018-03-21T04:35:38.981Z,86.10
2018-03-21T04:38:06.596Z,86.10
2018-03-21T04:40:34.996Z,86.30
2018-03-21T04:43:02.614Z,86.10
2018-03-21T04:45:30.215Z,86.40
2018-03-21T04:47:58.459Z,86.30
2018-03-21T04:50:26.059Z,86.10
2018-03-21T04:52:53.636Z,86.40
2018-03-21T04:55:21.240Z,86.70
2018-03-21T04:57:49.612Z,87.10
2018-03-21T05:00:17.228Z,87.10
2018-03-21T05:02:44.803Z,87.00
2018-03-21T05:05:12.728Z,87.60
2018-03-21T05:07:40.364Z,88.50
2018-03-21T05:10:07.970Z,88.10
2018-03-21T05:12:35.585Z,87.10
2018-03-21T05:15:03.936Z,87.30
2018-03-21T05:17:31.524Z,87.20
2018-03-21T05:19:59.130Z,87.30
2018-03-21T05:22:27.473Z,87.70
2018-03-21T05:24:55.136Z,87.70
2018-03-21T05:27:24.159Z,88.30
2018-03-21T05:29:51.869Z,88.20
2018-03-21T05:32:19.500Z,87.10
2018-03-21T05:34:47.104Z,86.70
2018-03-21T05:37:15.494Z,87.20
2018-03-21T05:39:43.848Z,86.80
2018-03-21T05:42:11.531Z,86.70
2018-03-21T05:44:39.202Z,87.00
2018-03-21T05:47:06.796Z,87.90
2018-03-21T05:49:34.406Z,87.80
2018-03-21T05:52:02.001Z,88.00
2018-03-21T05:54:29.588Z,88.30
2018-03-21T05:56:57.210Z,88.40
2018-03-21T05:59:25.610Z,88.60
2018-03-21T06:01:54.009Z,88.40
2018-03-21T06:04:22.409Z,88.60
2018-03-21T06:06:50.015Z,88.60
2018-03-21T06:09:17.683Z,88.20
2018-03-21T06:11:45.261Z,87.60
2018-03-21T06:14:12.897Z,87.70
2018-03-21T06:16:40.500Z,87.80
2018-03-21T06:19:08.123Z,88.00
2018-03-21T06:21:35.720Z,87.90
2018-03-21T06:24:03.322Z,87.40
2018-03-21T06:26:30.945Z,87.20
2018-03-21T06:28:58.539Z,88.30
2018-03-21T06:31:26.131Z,89.60
2018-03-21T06:33:53.720Z,89.50
2018-03-21T06:36:21.307Z,88.70
2018-03-21T06:38:48.928Z,89.80
2018-03-21T08:03:15.201Z,30.90
2018-03-21T08:05:42.821Z,30.80
2018-03-21T08:08:10.405Z,29.50
2018-03-21T08:10:37.989Z,31.50
2018-03-21T08:13:05.602Z,33.00
2018-03-21T08:15:33.197Z,33.50
2018-03-21T08:18:01.571Z,38.10
2018-03-21T08:20:29.160Z,38.00
2018-03-21T08:22:57.509Z,36.90
2018-03-21T08:25:25.101Z,36.80
2018-03-21T08:27:52.676Z,35.90
2018-03-21T08:30:20.301Z,34.40
2018-03-21T08:32:47.877Z,33.40
2018-03-21T08:35:15.458Z,30.00
2018-03-21T08:37:43.051Z,26.30
2018-03-21T08:40:10.629Z,22.50
2018-03-21T08:42:38.239Z,20.00
2018-03-21T08:45:06.579Z,18.80
2018-03-21T08:47:34.143Z,19.30
2018-03-21T08:50:01.732Z,18.70
2018-03-21T08:52:29.326Z,17.80
2018-03-21T08:54:58.166Z,17.70
2018-03-21T08:57:25.760Z,17.60
2018-03-21T08:59:53.357Z,18.70
2018-03-21T09:02:20.950Z,16.60
2018-03-21T09:04:48.533Z,14.80
2018-03-21T09:07:16.892Z,16.90
2018-03-21T09:09:44.465Z,16.50
2018-03-21T09:12:12.050Z,15.70
2018-03-21T09:14:39.649Z,15.90
2018-03-21T09:17:08.016Z,14.50
2018-03-21T09:19:35.629Z,14.50
2018-03-21T09:22:03.221Z,14.50
2018-03-21T09:24:30.787Z,16.00
2018-03-21T09:26:58.382Z,13.50
2018-03-21T09:29:25.958Z,15.50
2018-03-21T09:31:53.570Z,15.60
2018-03-21T09:34:21.925Z,14.60
2018-03-21T09:36:49.507Z,14.60
2018-03-21T09:39:17.113Z,15.20
2018-03-21T09:41:45.543Z,18.70
2018-03-21T09:44:13.132Z,18.80
2018-03-21T09:46:40.701Z,18.20
2018-03-21T09:49:08.295Z,16.90
2018-03-21T09:51:35.897Z,16.90
2018-03-21T09:54:04.241Z,20.60
2018-03-21T09:56:31.842Z,20.00
2018-03-21T09:58:59.415Z,20.50
2018-03-21T10:01:26.989Z,20.60
2018-03-21T10:03:54.592Z,19.70
2018-03-21T10:06:22.940Z,21.00
2018-03-21T10:08:50.546Z,20.90
2018-03-21T10:11:18.893Z,17.40
2018-03-21T10:13:46.465Z,17.40
2018-03-21T10:16:14.085Z,19.60
2018-03-21T10:18:42.435Z,16.40
2018-03-21T10:21:10.022Z,16.40
2018-03-21T10:23:37.625Z,17.00
2018-03-21T10:26:05.961Z,18.40
2018-03-21T10:28:33.536Z,18.40
2018-03-21T10:31:01.149Z,18.80
2018-03-21T10:33:29.492Z,20.40
2018-03-21T10:35:57.060Z,19.80
2018-03-21T10:38:24.755Z,22.20
2018-03-21T10:40:52.336Z,21.50
2018-03-21T10:43:19.916Z,20.90
2018-03-21T10:45:47.576Z,21.70
2018-03-21T10:48:15.153Z,23.50
2018-03-21T10:50:42.729Z,21.90
2018-03-21T10:53:10.393Z,20.40
2018-03-21T10:55:37.981Z,20.80
2018-03-21T10:58:05.573Z,20.60
2018-03-21T11:00:33.211Z,21.90
2018-03-21T11:03:02.743Z,20.90
2018-03-21T11:05:30.332Z,18.20
2018-03-21T11:07:57.953Z,17.00
2018-03-21T11:10:25.528Z,17.90
2018-03-21T11:12:53.107Z,18.40
2018-03-21T11:15:20.730Z,16.40
2018-03-21T11:17:48.315Z,15.80
2018-03-21T11:20:16.679Z,15.10
2018-03-21T11:22:44.301Z,15.10
2018-03-21T11:25:11.885Z,14.20
2018-03-21T11:27:39.484Z,12.90
2018-03-21T11:30:07.090Z,12.00
2018-03-21T11:32:34.671Z,12.80
2018-03-21T11:35:03.021Z,14.80
2018-03-21T11:37:30.640Z,14.70
2018-03-21T11:39:58.980Z,15.70
2018-03-21T11:42:26.561Z,15.70
2018-03-21T11:44:54.181Z,13.40
2018-03-21T11:47:22.524Z,14.30
2018-03-21T11:49:50.106Z,14.30
2018-03-21T11:52:17.721Z,13.60
2018-03-21T11:54:46.100Z,13.10
2018-03-21T11:57:14.455Z,16.10
2018-03-21T11:59:42.053Z,16.20
2018-03-21T12:02:09.635Z,16.60
2018-03-21T12:04:37.231Z,16.70
2018-03-21T12:07:05.797Z,18.30
2018-03-21T12:09:33.472Z,18.50
2018-03-21T12:12:01.036Z,18.20
2018-03-21T12:14:28.639Z,17.70
2018-03-21T12:16:56.974Z,17.00
2018-03-21T12:19:24.560Z,17.00
2018-03-21T12:21:52.164Z,17.30
2018-03-21T12:24:20.504Z,17.80
2018-03-21T12:26:48.105Z,17.40
2018-03-21T12:29:15.672Z,17.60
2018-03-21T12:31:43.250Z,17.10
2018-03-21T12:34:10.881Z,17.50
2018-03-21T12:36:38.462Z,15.60
2018-03-21T12:39:06.077Z,13.60
2018-03-21T12:41:33.676Z,13.60
2018-03-21T12:44:02.019Z,10.60
2018-03-21T12:46:29.621Z,10.60
2018-03-21T12:48:57.208Z,11.00
2018-03-21T12:51:25.593Z,12.40
2018-03-21T12:53:53.190Z,12.40
2018-03-21T12:56:20.859Z,13.50
2018-03-21T12:58:48.403Z,16.30
2018-03-21T13:01:15.982Z,13.80
2018-03-21T13:03:43.588Z,13.80
2018-03-21T13:06:11.167Z,12.20
2018-03-21T13:08:38.756Z,13.60
2018-03-21T13:11:06.354Z,15.30
2018-03-21T13:13:33.973Z,13.40
2018-03-21T13:16:01.555Z,14.40
2018-03-21T13:18:29.143Z,14.30
2018-03-21T13:20:56.733Z,16.50
2018-03-21T13:23:24.328Z,16.50
2018-03-21T13:25:51.898Z,16.90
2018-03-21T13:28:19.508Z,17.70
2018-03-21T13:30:47.085Z,18.10
2018-03-21T13:33:14.664Z,13.90
2018-03-21T13:35:42.265Z,13.90
2018-03-21T13:38:09.849Z,14.40
2018-03-21T13:40:37.452Z,16.40
2018-03-21T13:43:05.045Z,17.10
2018-03-21T13:45:33.390Z,16.90
2018-03-21T13:48:00.997Z,16.80
2018-03-21T13:50:29.339Z,18.60
2018-03-21T13:52:56.951Z,18.50
2018-03-21T13:55:25.309Z,17.10
2018-03-21T13:57:52.889Z,17.10
2018-03-21T14:00:20.499Z,17.50
2018-03-21T14:02:48.951Z,18.10
2018-03-21T14:05:16.557Z,18.10
2018-03-21T14:07:44.159Z,18.60
2018-03-21T14:10:11.735Z,17.60
2018-03-21T14:12:39.320Z,12.00
2018-03-21T14:15:06.887Z,13.80
2018-03-21T14:17:34.492Z,12.90
2018-03-21T14:20:02.078Z,9.70
2018-03-21T14:22:29.657Z,7.90
2018-03-21T14:24:57.274Z,8.10
2018-03-21T14:27:24.857Z,9.80
2018-03-21T14:29:52.465Z,7.70
2018-03-21T14:32:20.052Z,8.00
2018-03-21T14:34:47.619Z,10.60
2018-03-21T14:37:15.216Z,12.80
2018-03-21T14:39:43.557Z,15.00
2018-03-21T14:42:11.157Z,14.90
2018-03-21T14:44:38.723Z,13.20
2018-03-21T14:47:06.306Z,15.70
2018-03-21T14:49:33.921Z,14.00
2018-03-21T14:52:01.500Z,12.90
2018-03-21T14:54:29.113Z,12.90
2018-03-21T14:56:57.488Z,14.10
2018-03-21T14:59:25.069Z,15.20
2018-03-21T15:01:52.667Z,15.40
2018-03-21T15:04:20.257Z,16.40
2018-03-21T15:06:48.642Z,16.60
2018-03-21T15:09:16.989Z,16.00
2018-03-21T15:11:44.579Z,16.00
2018-03-21T15:14:12.173Z,16.90
2018-03-21T15:16:39.762Z,16.30
2018-03-21T15:19:08.187Z,16.10
2018-03-21T15:21:35.760Z,16.10
2018-03-21T15:24:03.350Z,16.60
2018-03-21T15:26:30.948Z,17.60
2018-03-21T15:28:58.528Z,17.60
2018-03-21T15:31:26.144Z,17.10
2018-03-21T15:33:54.106Z,16.50
2018-03-21T15:36:21.687Z,16.10
2018-03-21T15:38:50.053Z,15.60
2018-03-21T15:41:17.646Z,15.60
2018-03-21T15:43:46.018Z,16.50
2018-03-21T15:46:13.600Z,16.50
2018-03-21T15:48:41.951Z,15.40
2018-03-21T15:51:09.548Z,15.40
2018-03-21T15:53:37.136Z,14.60
2018-03-21T15:56:05.477Z,14.60
2018-03-21T15:58:33.070Z,14.60
2018-03-21T16:01:00.654Z,16.30
2018-03-21T16:03:28.247Z,16.30
2018-03-21T16:05:56.600Z,17.20
2018-03-21T16:08:24.176Z,17.20
2018-03-21T16:10:51.768Z,16.50
2018-03-21T16:13:19.341Z,17.40
2018-03-21T16:15:46.936Z,17.60
2018-03-21T16:18:15.279Z,18.20
2018-03-21T16:20:42.870Z,18.20
2018-03-21T16:23:10.464Z,17.70
2018-03-21T16:25:38.804Z,17.20
2018-03-21T16:28:06.408Z,17.30
2018-03-21T16:30:34.011Z,17.60
2018-03-21T16:33:02.366Z,17.90
2018-03-21T16:35:30.029Z,17.90
2018-03-21T16:37:57.579Z,18.30
2018-03-21T16:40:25.189Z,18.10
2018-03-21T16:42:52.777Z,19.30
2018-03-21T16:45:20.353Z,19.70
2018-03-21T16:47:48.729Z,19.40
2018-03-21T16:50:16.521Z,19.20
2018-03-21T16:52:44.881Z,19.10
2018-03-21T16:55:12.489Z,19.10
2018-03-21T16:57:40.832Z,21.00
2018-03-21T17:00:08.480Z,21.00
2018-03-21T17:02:36.081Z,19.60
2018-03-21T17:05:03.669Z,20.00
2018-03-21T17:07:31.253Z,19.90
2018-03-21T17:09:59.072Z,19.90
2018-03-21T17:12:26.693Z,20.90
2018-03-21T17:14:54.269Z,20.40
2018-03-21T17:17:21.881Z,20.60
2018-03-21T17:19:50.226Z,21.80
2018-03-21T17:22:17.812Z,21.70
2018-03-21T17:24:45.413Z,23.10
2018-03-21T17:27:13.784Z,22.60
2018-03-21T17:29:41.383Z,22.70
2018-03-21T17:32:09.740Z,25.90
2018-03-21T17:34:37.337Z,25.80
2018-03-21T17:37:05.689Z,25.70
2018-03-21T17:39:33.290Z,25.10
2018-03-21T17:42:00.869Z,24.90
2018-03-21T17:44:28.444Z,24.60
2018-03-21T17:46:56.820Z,24.10
2018-03-21T17:49:24.401Z,24.10
2018-03-21T17:51:51.963Z,24.20
2018-03-21T17:54:19.566Z,23.80
2018-03-21T17:56:47.903Z,23.20
2018-03-21T17:59:15.829Z,23.20
2018-03-21T18:01:44.202Z,23.60
2018-03-21T18:04:11.795Z,23.60
2018-03-21T18:06:40.132Z,24.70
2018-03-21T18:09:07.749Z,24.70
2018-03-21T18:11:35.331Z,24.40
2018-03-21T18:14:03.668Z,25.80
2018-03-21T18:16:31.279Z,25.90
2018-03-21T18:18:58.848Z,28.40
2018-03-21T18:21:26.450Z,28.60
2018-03-21T18:23:54.828Z,30.20
2018-03-21T18:26:23.172Z,29.60
2018-03-21T18:28:50.753Z,29.60
2018-03-21T18:31:18.411Z,28.20
2018-03-21T18:33:46.023Z,27.60
2018-03-21T18:36:13.627Z,27.10
2018-03-21T18:38:42.005Z,25.40
2018-03-21T18:41:10.231Z,25.30
2018-03-21T18:43:37.859Z,24.70
2018-03-21T18:46:05.483Z,26.90
2018-03-21T18:48:33.071Z,27.60
2018-03-21T18:51:01.331Z,27.90
2018-03-21T18:53:28.995Z,30.00
2018-03-21T18:55:57.344Z,29.10
2018-03-21T18:58:24.925Z,29.10
2018-03-21T19:00:52.543Z,29.20
2018-03-21T19:03:20.133Z,30.00
2018-03-21T19:05:47.757Z,31.80
2018-03-21T19:08:15.421Z,33.30
2018-03-21T19:10:45.018Z,33.50
2018-03-21T19:13:12.622Z,34.00
2018-03-21T19:15:40.255Z,34.70
2018-03-21T19:18:07.849Z,35.40
2018-03-21T19:20:35.441Z,34.60
2018-03-21T19:23:05.040Z,33.60
2018-03-21T19:25:32.616Z,34.90
2018-03-21T19:28:00.241Z,35.70
2018-03-21T19:30:27.870Z,35.80
2018-03-21T19:32:55.588Z,36.50
2018-03-21T19:35:23.178Z,36.50
2018-03-21T19:37:50.815Z,36.60
2018-03-21T19:40:19.211Z,35.70
2018-03-21T19:42:47.668Z,36.60
2018-03-21T19:45:15.319Z,36.60
2018-03-21T19:47:42.896Z,36.30
2018-03-21T19:50:10.637Z,36.40
2018-03-21T19:52:38.581Z,36.70
2018-03-21T19:55:06.343Z,37.40
2018-03-21T19:57:34.764Z,38.60
2018-03-21T20:00:02.654Z,38.60
2018-03-21T20:02:30.300Z,38.80
2018-03-21T20:04:58.067Z,33.00
2018-03-21T20:07:25.730Z,36.80
2018-03-21T20:09:53.312Z,38.30
2018-03-21T20:12:21.083Z,37.30
2018-03-21T20:14:48.876Z,35.60
2018-03-21T20:17:16.495Z,36.60
2018-03-21T20:19:44.851Z,30.70
2018-03-21T20:22:12.477Z,30.60
2018-03-21T20:24:40.071Z,32.50
2018-03-21T20:27:07.890Z,32.80
2018-03-21T20:29:35.941Z,35.10
2018-03-21T20:32:03.908Z,36.30
2018-03-21T20:34:31.811Z,35.00
2018-03-21T20:36:59.490Z,34.50
2018-03-21T20:39:27.084Z,34.20
2018-03-21T20:41:54.695Z,29.30
2018-03-21T20:44:22.357Z,30.40
2018-03-21T20:46:50.725Z,28.60
2018-03-21T20:49:18.313Z,28.60
2018-03-21T20:51:46.720Z,25.40
2018-03-21T20:54:14.308Z,25.50
2018-03-21T20:56:42.142Z,26.30
2018-03-21T20:59:10.565Z,25.40
2018-03-21T21:01:38.156Z,25.40
2018-03-21T21:04:05.761Z,24.50
2018-03-21T21:06:33.369Z,23.00
2018-03-21T21:09:01.787Z,22.60
2018-03-21T21:11:29.398Z,22.60
2018-03-21T21:13:57.007Z,22.70
2018-03-21T21:16:25.387Z,22.30
2018-03-21T21:18:52.982Z,21.50
2018-03-21T21:21:21.368Z,20.90
2018-03-21T21:23:49.910Z,20.60
2018-03-21T21:26:17.540Z,20.60
2018-03-21T21:28:45.163Z,20.40
2018-03-21T21:31:12.748Z,20.10
2018-03-21T21:33:40.328Z,20.00
2018-03-21T21:36:08.104Z,19.80
2018-03-21T21:38:35.807Z,19.80
2018-03-21T21:41:04.263Z,19.90
2018-03-21T21:43:31.889Z,19.90
2018-03-21T21:46:00.244Z,20.00
2018-03-21T21:48:27.815Z,19.90
2018-03-21T21:50:55.613Z,19.80
2018-03-21T21:53:23.228Z,19.50
2018-03-21T21:55:50.813Z,19.50
2018-03-21T21:58:18.404Z,19.70
2018-03-21T22:00:45.977Z,19.20
2018-03-21T22:03:13.729Z,19.20
2018-03-21T22:05:41.372Z,19.20
2018-03-21T22:08:09.719Z,19.30
2018-03-21T22:10:37.293Z,19.30
2018-03-21T22:13:04.925Z,19.20
2018-03-21T22:15:32.817Z,19.60
2018-03-21T22:18:00.380Z,20.00
2018-03-21T22:20:27.966Z,19.90
2018-03-21T22:22:55.537Z,19.60
2018-03-21T22:25:23.111Z,20.00
2018-03-21T22:27:50.725Z,22.80
2018-03-21T22:30:18.299Z,23.20
2018-03-21T22:32:45.864Z,21.90
2018-03-21T22:35:13.462Z,21.60
2018-03-21T22:37:41.903Z,23.70
2018-03-21T22:40:09.462Z,23.70
2018-03-21T22:42:37.066Z,23.30
2018-03-21T22:45:04.631Z,22.10
2018-03-21T22:47:32.230Z,23.10
2018-03-21T22:49:59.818Z,22.10
2018-03-21T22:52:28.159Z,20.20
2018-03-21T22:54:55.737Z,20.20
2018-03-21T22:57:23.350Z,23.10
2018-03-21T22:59:51.708Z,20.70
2018-03-21T23:02:19.288Z,20.80
2018-03-21T23:04:46.900Z,20.00
2018-03-21T23:07:15.240Z,19.80
2018-03-21T23:09:42.821Z,19.80
2018-03-21T23:12:10.416Z,19.40
2018-03-21T23:14:37.997Z,20.00
2018-03-21T23:17:05.576Z,19.40
2018-03-21T23:19:34.018Z,18.90
2018-03-21T23:22:01.587Z,18.90
2018-03-21T23:24:29.164Z,19.40
2018-03-21T23:26:56.760Z,18.90
2018-03-21T23:29:24.324Z,19.20
2018-03-21T23:31:51.904Z,18.20
2018-03-21T23:34:19.508Z,17.40
2018-03-21T23:36:47.852Z,17.80
2018-03-21T23:39:15.436Z,17.80
2018-03-21T23:41:43.054Z,17.40
2018-03-21T23:44:10.631Z,17.70
2018-03-21T23:46:38.200Z,17.40
2018-03-21T23:49:05.802Z,18.40
2018-03-21T23:51:33.376Z,17.30
2018-03-21T23:54:00.944Z,17.40
2018-03-21T23:56:28.544Z,17.90
2018-03-21T23:58:56.117Z,17.90
